Time;durP1;ratioP1;P1;durP2;ratioP2;P2;SDS_P1;SDS_P2;PMS_P1;PMS_P2;Temp;Humidity;BMP_temperature;BMP_pressure;BME280_temperature;BME280_humidity;BME280_pressure;Samples;Min_cycle;Max_cycle;Signal;HPM_P1;HPM_P2
2021/06/12 00:00:13;;;;;;;;;;;;;;;;;;5041240;28;20389;-66
2021/06/12 00:02:40;;;;;;;;;;;;;;;;;;5035987;28;19925;-66
2021/06/12 00:05:06;;;;;;;;;;;;;;;;;;5038473;28;20292;-66
2021/06/12 00:07:33;;;;;;;;;;;;;;;;;;5037713;28;19970;-66
2021/06/12 00:09:59;;;;;;;;;;;;;;;;;;5037563;28;19932;-66
2021/06/12 00:12:26;;;;;;;;;;;;;;;;;;5041069;28;19933;-66
2021/06/12 00:14:52;;;;;;;;;;;;;;;;;;5040867;28;20444;-66
2021/06/12 00:17:19;;;;;;;;;;;;;;;;;;5043731;28;19925;-66
2021/06/12 00:19:45;;;;;;;;;;;;;;;;;;5038733;28;20366;-67
2021/06/12 00:22:12;;;;;;;;;;;;;;;;;;5037745;28;20271;-67
2021/06/12 00:24:38;;;;;;;;;;;;;;;;;;5046771;28;19925;-67
2021/06/12 00:27:05;;;;;;;;;;;;;;;;;;5040459;28;19933;-67
2021/06/12 00:29:31;;;;;;;;;;;;;;;;;;5038129;28;19925;-66
2021/06/12 00:31:58;;;;;;;;;;;;;;;;;;5043322;28;20009;-66
2021/06/12 00:34:24;;;;;;;;;;;;;;;;;;5040216;28;19929;-66
2021/06/12 00:36:51;;;;;;;;;;;;;;;;;;5040740;28;19925;-66
2021/06/12 00:39:18;;;;;;;;;;;;;;;;;;5039359;28;20388;-66
2021/06/12 00:41:44;;;;;;;;;;;;;;;;;;5039524;28;20028;-66
2021/06/12 00:44:11;;;;;;;;;;;;;;;;;;5044063;28;19925;-66
2021/06/12 00:46:37;;;;;;;;;;;;;;;;;;5050234;28;20293;-66
2021/06/12 00:49:04;;;;;;;;;;;;;;;;;;5036444;28;19929;-67
2021/06/12 00:51:30;;;;;;;;;;;;;;;;;;5041613;28;19932;-66
2021/06/12 00:53:57;;;;;;;;;;;;;;;;;;5041037;28;20290;-65
2021/06/12 00:56:23;;;;;;;;;;;;;;;;;;5038639;28;19944;-65
2021/06/12 00:58:52;;;;;;;;;;;;;;;;;;5041565;28;19924;-65
2021/06/12 01:01:19;;;;;;;;;;;;;;;;;;5037666;28;19925;-66
2021/06/12 01:03:45;;;;;;;;;;;;;;;;;;5043634;28;20553;-65
2021/06/12 01:06:12;;;;;;;;;;;;;;;;;;5040086;28;19932;-65
2021/06/12 01:08:38;;;;;;;;;;;;;;;;;;5037521;28;19925;-66
2021/06/12 01:11:05;;;;;;;;;;;;;;;;;;5036010;28;19970;-66
2021/06/12 01:13:31;;;;;;;;;;;;;;;;;;5034938;28;19929;-65
2021/06/12 01:15:58;;;;;;;;;;;;;;;;;;5039258;28;19931;-65
2021/06/12 01:18:24;;;;;;;;;;;;;;;;;;5037765;28;20010;-65
2021/06/12 01:20:51;;;;;;;;;;;;;;;;;;5040066;28;20359;-66
2021/06/12 01:23:17;;;;;;;;;;;;;;;;;;5038821;28;19932;-66
2021/06/12 01:25:44;;;;;;;;;;;;;;;;;;5035683;28;19933;-66
2021/06/12 01:28:10;;;;;;;;;;;;;;;;;;5039378;28;19998;-66
2021/06/12 01:30:37;;;;;;;;;;;;;;;;;;5042183;28;19952;-66
2021/06/12 01:33:04;;;;;;;;;;;;;;;;;;5041001;28;19926;-65
2021/06/12 01:35:30;;;;;;;;;;;;;;;;;;5034908;28;20384;-66
2021/06/12 01:37:57;;;;;;;;;;;;;;;;;;5034568;28;20313;-65
2021/06/12 01:40:23;;;;;;;;;;;;;;;;;;5037149;28;19935;-65
2021/06/12 01:42:49;;;;;;;;;;;;;;;;;;5041102;28;19955;-65
2021/06/12 01:45:16;;;;;;;;;;;;;;;;;;5042567;28;19925;-65
2021/06/12 01:47:42;;;;;;;;;;;;;;;;;;5038209;28;20446;-66
2021/06/12 01:50:09;;;;;;;;;;;;;;;;;;5040725;28;19925;-65
2021/06/12 01:52:35;;;;;;;;;;;;;;;;;;5036486;28;19925;-66
2021/06/12 01:55:02;;;;;;;;;;;;;;;;;;5036213;28;19978;-66
2021/06/12 01:57:28;;;;;;;;;;;;;;;;;;5040104;28;20409;-66
2021/06/12 01:59:55;;;;;;;;;;;;;;;;;;5031423;28;20008;-66
2021/06/12 02:02:21;;;;;;;;;;;;;;;;;;5032910;28;19929;-66
2021/06/12 02:04:49;;;;;;;;;;;;;;;;;;5040042;28;19935;-66
2021/06/12 02:07:16;;;;;;;;;;;;;;;;;;5042058;28;20423;-66
2021/06/12 02:09:43;;;;;;;;;;;;;;;;;;5042430;28;20714;-66
2021/06/12 02:12:10;;;;;;;;;;;;;;;;;;5040719;28;19925;-65
2021/06/12 02:14:36;;;;;;;;;;;;;;;;;;5046622;28;19929;-66
2021/06/12 02:17:03;;;;;;;;;;;;;;;;;;5029127;28;20384;-66
2021/06/12 02:19:30;;;;;;;;;;;;;;;;;;5043294;28;19931;-66
2021/06/12 02:21:56;;;;;;;;;;;;;;;;;;5035896;28;19925;-65
2021/06/12 02:24:23;;;;;;;;;;;;;;;;;;5034722;28;19925;-65
2021/06/12 02:26:51;;;;;;;;;;;;;;;;;;5037835;28;19936;-66
2021/06/12 02:29:18;;;;;;;;;;;;;;;;;;5039014;28;19978;-67
2021/06/12 02:31:44;;;;;;;;;;;;;;;;;;5039083;28;19929;-67
2021/06/12 02:34:11;;;;;;;;;;;;;;;;;;5035468;28;20458;-67
2021/06/12 02:36:37;;;;;;;;;;;;;;;;;;5033981;28;19925;-66
2021/06/12 02:39:04;;;;;;;;;;;;;;;;;;5038190;28;19929;-66
2021/06/12 02:41:30;;;;;;;;;;;;;;;;;;5038808;28;20032;-66
2021/06/12 02:43:57;;;;;;;;;;;;;;;;;;5037677;28;19925;-65
2021/06/12 02:46:23;;;;;;;;;;;;;;;;;;5034438;28;19965;-65
2021/06/12 02:48:49;;;;;;;;;;;;;;;;;;5035869;28;19929;-65
2021/06/12 02:51:16;;;;;;;;;;;;;;;;;;5032748;28;19925;-65
2021/06/12 02:53:42;;;;;;;;;;;;;;;;;;5043379;28;19928;-65
2021/06/12 02:56:09;;;;;;;;;;;;;;;;;;5033668;28;20022;-65
2021/06/12 02:58:35;;;;;;;;;;;;;;;;;;5036269;28;19955;-65
2021/06/12 03:01:02;;;;;;;;;;;;;;;;;;5033646;28;19929;-65
2021/06/12 03:03:28;;;;;;;;;;;;;;;;;;5037722;28;19955;-65
2021/06/12 03:05:55;;;;;;;;;;;;;;;;;;5045613;28;19929;-65
2021/06/12 03:08:21;;;;;;;;;;;;;;;;;;5035232;28;19925;-65
2021/06/12 03:10:48;;;;;;;;;;;;;;;;;;5039945;28;19925;-65
2021/06/12 03:13:14;;;;;;;;;;;;;;;;;;5039238;28;20265;-65
2021/06/12 03:15:41;;;;;;;;;;;;;;;;;;5106955;22;19924;-66
2021/06/12 03:18:07;;;;;;;;;;;;;;;;;;5075762;28;20015;-66
2021/06/12 03:20:34;;;;;;;;;;;;;;;;;;5083545;28;20322;-66
2021/06/12 03:23:02;;;;;;;;;;;;;;;;;;5081734;28;19924;-66
2021/06/12 03:25:28;;;;;;;;;;;;;;;;;;5066798;28;19929;-66
2021/06/12 03:27:54;;;;;;;;;;;;;;;;;;5062852;28;19925;-66
2021/06/12 03:30:21;;;;;;;;;;;;;;;;;;5060987;28;20368;-66
2021/06/12 03:32:47;;;;;;;;;;;;;;;;;;5059468;28;19932;-66
2021/06/12 03:35:14;;;;;;;;;;;;;;;;;;5059468;28;19925;-66
2021/06/12 03:37:40;;;;;;;;;;;;;;;;;;5065244;28;19924;-66
2021/06/12 03:40:07;;;;;;;;;;;;;;;;;;5061688;28;20245;-66
2021/06/12 03:42:33;;;;;;;;;;;;;;;;;;5063753;28;19924;-65
2021/06/12 03:45:00;;;;;;;;;;;;;;;;;;5065716;28;19982;-65
2021/06/12 03:47:26;;;;;;;;;;;;;;;;;;5062200;28;19946;-65
2021/06/12 03:49:53;;;;;;;;;;;;;;;;;;5063095;28;19925;-65
2021/06/12 03:52:19;;;;;;;;;;;;;;;;;;5064545;28;19932;-65
2021/06/12 03:54:46;;;;;;;;;;;;;;;;;;5059697;28;19928;-65
2021/06/12 03:57:12;;;;;;;;;;;;;;;;;;5062012;28;19941;-65
2021/06/12 03:59:39;;;;;;;;;;;;;;;;;;5060325;28;19977;-65
2021/06/12 04:02:05;;;;;;;;;;;;;;;;;;5060792;28;19924;-65
2021/06/12 04:04:32;;;;;;;;;;;;;;;;;;5059204;28;19954;-65
2021/06/12 04:06:58;;;;;;;;;;;;;;;;;;5065048;28;19925;-65
2021/06/12 04:09:24;;;;;;;;;;;;;;;;;;5061680;28;19938;-65
2021/06/12 04:11:51;;;;;;;;;;;;;;;;;;5065652;28;19933;-65
2021/06/12 04:14:17;;;;;;;;;;;;;;;;;;5063429;28;19933;-65
2021/06/12 04:16:44;;;;;;;;;;;;;;;;;;5067557;28;20303;-65
2021/06/12 04:19:10;;;;;;;;;;;;;;;;;;5064298;28;19929;-65
2021/06/12 04:21:37;;;;;;;;;;;;;;;;;;5064886;28;19925;-66
2021/06/12 04:24:03;;;;;;;;;;;;;;;;;;5061677;28;20023;-65
2021/06/12 04:26:30;;;;;;;;;;;;;;;;;;5065960;28;19928;-65
2021/06/12 04:28:56;;;;;;;;;;;;;;;;;;5062329;28;19971;-67
2021/06/12 04:31:23;;;;;;;;;;;;;;;;;;5059116;28;19925;-65
2021/06/12 04:33:49;;;;;;;;;;;;;;;;;;5062105;28;19928;-65
2021/06/12 04:36:16;;;;;;;;;;;;;;;;;;5063066;28;20300;-65
2021/06/12 04:38:42;;;;;;;;;;;;;;;;;;5055738;28;19935;-65
2021/06/12 04:41:09;;;;;;;;;;;;;;;;;;5068955;28;19928;-65
2021/06/12 04:43:35;;;;;;;;;;;;;;;;;;5068719;28;19924;-65
2021/06/12 04:46:02;;;;;;;;;;;;;;;;;;5062925;28;19932;-66
2021/06/12 04:48:28;;;;;;;;;;;;;;;;;;5064849;28;19928;-64
2021/06/12 04:50:54;;;;;;;;;;;;;;;;;;5063777;28;20396;-64
2021/06/12 04:53:21;;;;;;;;;;;;;;;;;;5064958;28;20403;-65
2021/06/12 04:55:47;;;;;;;;;;;;;;;;;;5067744;28;19925;-65
2021/06/12 04:58:14;;;;;;;;;;;;;;;;;;5066084;28;19972;-65
2021/06/12 05:00:40;;;;;;;;;;;;;;;;;;5067684;28;19925;-65
2021/06/12 05:03:07;;;;;;;;;;;;;;;;;;5064960;28;20454;-65
2021/06/12 05:05:33;;;;;;;;;;;;;;;;;;5058948;28;19929;-65
2021/06/12 05:08:00;;;;;;;;;;;;;;;;;;5063137;28;20718;-65
2021/06/12 05:10:26;;;;;;;;;;;;;;;;;;5068227;28;19924;-65
2021/06/12 05:12:53;;;;;;;;;;;;;;;;;;5067308;28;19969;-65
2021/06/12 05:15:23;;;;;;;;;;;;;;;;;;5066167;28;19943;-65
2021/06/12 05:17:50;;;;;;;;;;;;;;;;;;5059730;28;19970;-65
2021/06/12 05:20:17;;;;;;;;;;;;;;;;;;5060755;28;20019;-65
2021/06/12 05:22:43;;;;;;;;;;;;;;;;;;5065527;28;19987;-65
2021/06/12 05:25:10;;;;;;;;;;;;;;;;;;5061339;28;19928;-65
2021/06/12 05:27:36;;;;;;;;;;;;;;;;;;5059064;28;20008;-65
2021/06/12 05:30:03;;;;;;;;;;;;;;;;;;5068094;28;19970;-64
2021/06/12 05:32:29;;;;;;;;;;;;;;;;;;5063257;28;19932;-65
2021/06/12 05:34:56;;;;;;;;;;;;;;;;;;5066932;28;20001;-64
2021/06/12 05:37:22;;;;;;;;;;;;;;;;;;5071036;28;19967;-65
2021/06/12 05:39:49;;;;;;;;;;;;;;;;;;5065485;28;19947;-64
2021/06/12 05:42:18;;;;;;;;;;;;;;;;;;5066288;28;19928;-64
2021/06/12 05:44:46;;;;;;;;;;;;;;;;;;5058734;28;19931;-65
2021/06/12 05:47:12;;;;;;;;;;;;;;;;;;5055484;28;19936;-65
2021/06/12 05:49:39;;;;;;;;;;;;;;;;;;5061249;28;20312;-65
2021/06/12 05:52:05;;;;;;;;;;;;;;;;;;5062179;28;19931;-64
2021/06/12 05:54:32;;;;;;;;;;;;;;;;;;5061440;28;19935;-64
2021/06/12 05:56:58;;;;;;;;;;;;;;;;;;5061553;28;19932;-65
2021/06/12 05:59:24;;;;;;;;;;;;;;;;;;5067143;28;19924;-64
2021/06/12 06:01:51;;;;;;;;;;;;;;;;;;5064364;28;19924;-65
2021/06/12 06:04:17;;;;;;;;;;;;;;;;;;5066894;28;20365;-64
2021/06/12 06:06:46;;;;;;;;;;;;;;;;;;5061259;28;20388;-65
2021/06/12 06:09:13;;;;;;;;;;;;;;;;;;5068701;28;19924;-65
2021/06/12 06:11:39;;;;;;;;;;;;;;;;;;5066902;28;19970;-65
2021/06/12 06:14:06;;;;;;;;;;;;;;;;;;5061713;28;19931;-65
2021/06/12 06:16:32;;;;;;;;;;;;;;;;;;5062384;28;20451;-64
2021/06/12 06:18:59;;;;;;;;;;;;;;;;;;5067098;28;19935;-65
2021/06/12 06:21:25;;;;;;;;;;;;;;;;;;5068519;28;19956;-66
2021/06/12 06:23:52;;;;;;;;;;;;;;;;;;5068219;28;19925;-66
2021/06/12 06:26:18;;;;;;;;;;;;;;;;;;5055558;28;19982;-67
2021/06/12 06:28:45;;;;;;;;;;;;;;;;;;5068290;28;19966;-64
2021/06/12 06:31:11;;;;;;;;;;;;;;;;;;5059384;28;20392;-64
2021/06/12 06:33:38;;;;;;;;;;;;;;;;;;5067904;28;19978;-65
2021/06/12 06:36:04;;;;;;;;;;;;;;;;;;5060086;28;20397;-71
2021/06/12 06:38:31;;;;;;;;;;;;;;;;;;5062785;28;19924;-65
2021/06/12 06:40:57;;;;;;;;;;;;;;;;;;5062040;28;20019;-66
2021/06/12 06:43:24;;;;;;;;;;;;;;;;;;5066314;28;19939;-65
2021/06/12 06:45:50;;;;;;;;;;;;;;;;;;5062172;28;19964;-66
2021/06/12 06:48:17;;;;;;;;;;;;;;;;;;5066946;28;19974;-66
2021/06/12 06:50:43;;;;;;;;;;;;;;;;;;5068703;28;19924;-66
2021/06/12 06:53:10;;;;;;;;;;;;;;;;;;5056077;28;19924;-64
2021/06/12 06:55:36;;;;;;;;;;;;;;;;;;5062010;28;19932;-66
2021/06/12 06:58:03;;;;;;;;;;;;;;;;;;5056902;28;20382;-64
2021/06/12 07:00:29;;;;;;;;;;;;;;;;;;5060253;28;19925;-65
2021/06/12 07:02:56;;;;;;;;;;;;;;;;;;5064127;28;19944;-65
2021/06/12 07:05:22;;;;;;;;;;;;;;;;;;5065196;28;19970;-66
2021/06/12 07:07:49;;;;;;;;;;;;;;;;;;5058660;28;19960;-66
2021/06/12 07:10:15;;;;;;;;;;;;;;;;;;5062146;28;19932;-66
2021/06/12 07:12:42;;;;;;;;;;;;;;;;;;5063256;28;19936;-66
2021/06/12 07:15:08;;;;;;;;;;;;;;;;;;5059266;28;19978;-66
2021/06/12 07:17:35;;;;;;;;;;;;;;;;;;5062937;28;19979;-66
2021/06/12 07:20:02;;;;;;;;;;;;;;;;;;5060142;28;20300;-66
2021/06/12 07:22:28;;;;;;;;;;;;;;;;;;5062482;28;19929;-65
2021/06/12 07:24:55;;;;;;;;;;;;;;;;;;5067532;28;19924;-66
2021/06/12 07:27:21;;;;;;;;;;;;;;;;;;5062750;28;19936;-66
2021/06/12 07:29:48;;;;;;;;;;;;;;;;;;5064238;28;19924;-67
2021/06/12 07:32:14;;;;;;;;;;;;;;;;;;5066712;28;19932;-66
2021/06/12 07:34:41;;;;;;;;;;;;;;;;;;5060888;28;19932;-66
2021/06/12 07:37:07;;;;;;;;;;;;;;;;;;5065326;28;19932;-66
2021/06/12 07:39:34;;;;;;;;;;;;;;;;;;5064019;28;19970;-65
2021/06/12 07:42:00;;;;;;;;;;;;;;;;;;5058618;28;19925;-67
2021/06/12 07:44:27;;;;;;;;;;;;;;;;;;5057028;28;19929;-65
2021/06/12 07:46:53;;;;;;;;;;;;;;;;;;5060920;28;19932;-66
2021/06/12 07:49:20;;;;;;;;;;;;;;;;;;5062216;28;20305;-67
2021/06/12 07:51:47;;;;;;;;;;;;;;;;;;5061478;28;19928;-67
2021/06/12 07:54:13;;;;;;;;;;;;;;;;;;5056618;28;20008;-67
2021/06/12 07:56:40;;;;;;;;;;;;;;;;;;5058353;28;19932;-66
2021/06/12 07:59:06;;;;;;;;;;;;;;;;;;5061609;28;20373;-67
2021/06/12 08:01:33;;;;;;;;;;;;;;;;;;5066724;28;19929;-67
2021/06/12 08:03:59;;;;;;;;;;;;;;;;;;5059903;28;19924;-66
2021/06/12 08:06:26;;;;;;;;;;;;;;;;;;5063978;28;19937;-67
2021/06/12 08:08:53;;;;;;;;;;;;;;;;;;5059641;28;19935;-67
2021/06/12 08:11:19;;;;;;;;;;;;;;;;;;5062494;28;19924;-67
2021/06/12 08:13:46;;;;;;;;;;;;;;;;;;5065300;28;19970;-67
2021/06/12 08:16:12;;;;;;;;;;;;;;;;;;5065193;28;20053;-67
2021/06/12 08:18:39;;;;;;;;;;;;;;;;;;5069345;28;19933;-68
2021/06/12 08:21:06;;;;;;;;;;;;;;;;;;5067812;28;19933;-66
2021/06/12 08:23:32;;;;;;;;;;;;;;;;;;5069080;28;19936;-66
2021/06/12 08:25:59;;;;;;;;;;;;;;;;;;5065863;28;20301;-66
2021/06/12 08:28:25;;;;;;;;;;;;;;;;;;5065132;28;20021;-66
2021/06/12 08:30:52;;;;;;;;;;;;;;;;;;5066359;28;19929;-64
2021/06/12 08:33:20;;;;;;;;;;;;;;;;;;5067210;28;20030;-66
2021/06/12 08:35:46;;;;;;;;;;;;;;;;;;5070159;28;20074;-66
2021/06/12 08:38:13;;;;;;;;;;;;;;;;;;5059778;28;19925;-67
2021/06/12 08:40:39;;;;;;;;;;;;;;;;;;5061330;28;19936;-66
2021/06/12 08:43:06;;;;;;;;;;;;;;;;;;5066393;28;19924;-67
2021/06/12 08:45:32;;;;;;;;;;;;;;;;;;5063535;28;20013;-67
2021/06/12 08:47:59;;;;;;;;;;;;;;;;;;5062511;28;19924;-67
2021/06/12 08:50:26;;;;;;;;;;;;;;;;;;5061819;28;20315;-67
2021/06/12 08:52:52;;;;;;;;;;;;;;;;;;5067848;28;19982;-65
2021/06/12 08:55:19;;;;;;;;;;;;;;;;;;5067772;28;19928;-66
2021/06/12 08:57:45;;;;;;;;;;;;;;;;;;5068427;28;19972;-67
2021/06/12 09:00:12;;;;;;;;;;;;;;;;;;5061766;28;19929;-66
2021/06/12 09:02:38;;;;;;;;;;;;;;;;;;5058244;28;20415;-66
2021/06/12 09:05:05;;;;;;;;;;;;;;;;;;5063780;28;19929;-66
2021/06/12 09:07:34;;;;;;;;;;;;;;;;;;5066935;28;19935;-66
2021/06/12 09:10:01;;;;;;;;;;;;;;;;;;5060969;28;20306;-66
2021/06/12 09:12:28;;;;;;;;;;;;;;;;;;5063301;28;21594;-66
2021/06/12 09:14:54;;;;;;;;;;;;;;;;;;5082316;22;19925;-65
2021/06/12 09:17:21;;;;;;;;;;;;;;;;;;5077016;28;19931;-65
2021/06/12 09:19:49;;;;;;;;;;;;;;;;;;5073291;28;19977;-67
2021/06/12 09:22:15;;;;;;;;;;;;;;;;;;5073174;28;19932;-66
2021/06/12 09:24:42;;;;;;;;;;;;;;;;;;5076499;28;19925;-66
2021/06/12 09:27:11;;;;;;;;;;;;;;;;;;5070571;28;20593;-67
2021/06/12 09:29:37;;;;;;;;;;;;;;;;;;5071039;28;19925;-67
2021/06/12 09:32:04;;;;;;;;;;;;;;;;;;5079655;28;19975;-66
2021/06/12 09:34:31;;;;;;;;;;;;;;;;;;5077614;28;20326;-66
2021/06/12 09:36:57;;;;;;;;;;;;;;;;;;5075228;28;20297;-66
2021/06/12 09:39:24;;;;;;;;;;;;;;;;;;5074852;28;19924;-66
2021/06/12 09:41:53;;;;;;;;;;;;;;;;;;5074321;28;20450;-65
2021/06/12 09:44:20;;;;;;;;;;;;;;;;;;5076065;28;19924;-67
2021/06/12 09:46:46;;;;;;;;;;;;;;;;;;5072451;28;19932;-65
2021/06/12 09:49:14;;;;;;;;;;;;;;;;;;5075422;28;19937;-65
2021/06/12 09:51:41;;;;;;;;;;;;;;;;;;5072741;28;19925;-65
2021/06/12 09:54:07;;;;;;;;;;;;;;;;;;5071446;28;20372;-65
2021/06/12 09:56:34;;;;;;;;;;;;;;;;;;5071940;28;19929;-66
2021/06/12 09:59:00;;;;;;;;;;;;;;;;;;5077075;28;19931;-65
2021/06/12 10:01:28;;;;;;;;;;;;;;;;;;5077626;28;20388;-65
2021/06/12 10:03:55;;;;;;;;;;;;;;;;;;5077436;28;19928;-64
2021/06/12 10:06:23;;;;;;;;;;;;;;;;;;5073569;28;20354;-64
2021/06/12 10:08:49;;;;;;;;;;;;;;;;;;5072883;28;19959;-66
2021/06/12 10:11:16;;;;;;;;;;;;;;;;;;5072307;28;20415;-65
2021/06/12 10:13:43;;;;;;;;;;;;;;;;;;5073091;28;19928;-65
2021/06/12 10:16:09;;;;;;;;;;;;;;;;;;5082666;28;20236;-66
2021/06/12 10:18:36;;;;;;;;;;;;;;;;;;5071857;28;19929;-66
2021/06/12 10:21:02;;;;;;;;;;;;;;;;;;5066882;28;20303;-66
2021/06/12 10:23:29;;;;;;;;;;;;;;;;;;5066554;28;19936;-65
2021/06/12 10:25:55;;;;;;;;;;;;;;;;;;5070529;28;19932;-66
2021/06/12 10:28:22;;;;;;;;;;;;;;;;;;5066184;28;20010;-66
2021/06/12 10:30:48;;;;;;;;;;;;;;;;;;5066674;28;20380;-66
2021/06/12 10:33:15;;;;;;;;;;;;;;;;;;5069065;28;20364;-65
2021/06/12 10:35:41;;;;;;;;;;;;;;;;;;5067466;28;19972;-65
2021/06/12 10:38:13;;;;;;;;;;;;;;;;;;5069035;28;20327;-64
2021/06/12 10:40:40;;;;;;;;;;;;;;;;;;5065697;28;19936;-69
2021/06/12 10:43:06;;;;;;;;;;;;;;;;;;5067030;28;19978;-64
2021/06/12 10:45:33;;;;;;;;;;;;;;;;;;5067075;28;19929;-66
2021/06/12 10:47:59;;;;;;;;;;;;;;;;;;5067420;28;19933;-65
2021/06/12 10:50:26;;;;;;;;;;;;;;;;;;5069933;28;19931;-66
2021/06/12 10:52:52;;;;;;;;;;;;;;;;;;5076477;28;20355;-65
2021/06/12 10:55:18;;;;;;;;;;;;;;;;;;5074742;28;20429;-63
2021/06/12 10:57:45;;;;;;;;;;;;;;;;;;5067652;28;19924;-65
2021/06/12 11:00:11;;;;;;;;;;;;;;;;;;5068413;28;19997;-65
2021/06/12 11:02:41;;;;;;;;;;;;;;;;;;5067702;28;20023;-66
2021/06/12 11:05:10;;;;;;;;;;;;;;;;;;5065856;28;19931;-65
2021/06/12 11:07:37;;;;;;;;;;;;;;;;;;5064769;28;19924;-66
2021/06/12 11:10:03;;;;;;;;;;;;;;;;;;5067476;28;20021;-65
2021/06/12 11:12:37;;;;;;;;;;;;;;;;;;5066941;28;20431;-65
2021/06/12 11:15:03;;;;;;;;;;;;;;;;;;5066040;28;19924;-65
2021/06/12 11:17:30;;;;;;;;;;;;;;;;;;5069232;28;20027;-67
2021/06/12 11:19:56;;;;;;;;;;;;;;;;;;5064385;28;19924;-65
2021/06/12 11:22:23;;;;;;;;;;;;;;;;;;5062768;28;20065;-65
2021/06/12 11:24:50;;;;;;;;;;;;;;;;;;5066401;28;19981;-64
2021/06/12 11:27:16;;;;;;;;;;;;;;;;;;5067448;28;20388;-66
2021/06/12 11:29:43;;;;;;;;;;;;;;;;;;5066472;28;19932;-65
2021/06/12 11:32:11;;;;;;;;;;;;;;;;;;5065836;28;20011;-65
2021/06/12 11:34:38;;;;;;;;;;;;;;;;;;5068836;28;20346;-66
2021/06/12 11:37:04;;;;;;;;;;;;;;;;;;5066235;28;20424;-65
2021/06/12 11:39:31;;;;;;;;;;;;;;;;;;5066824;28;19924;-64
2021/06/12 11:41:57;;;;;;;;;;;;;;;;;;5066215;28;19929;-65
2021/06/12 11:44:24;;;;;;;;;;;;;;;;;;5067852;28;19968;-66
2021/06/12 11:46:50;;;;;;;;;;;;;;;;;;5065575;28;20041;-66
2021/06/12 11:49:17;;;;;;;;;;;;;;;;;;5067497;28;20295;-66
2021/06/12 11:51:43;;;;;;;;;;;;;;;;;;5072286;28;20409;-64
2021/06/12 11:54:10;;;;;;;;;;;;;;;;;;5070291;28;19924;-64
2021/06/12 11:56:36;;;;;;;;;;;;;;;;;;5068439;28;19928;-66
2021/06/12 11:59:03;;;;;;;;;;;;;;;;;;5066605;28;19933;-66
2021/06/12 12:01:29;;;;;;;;;;;;;;;;;;5067817;28;20016;-64
2021/06/12 12:03:56;;;;;;;;;;;;;;;;;;5070964;28;20424;-64
2021/06/12 12:06:22;;;;;;;;;;;;;;;;;;5069034;28;20002;-65
2021/06/12 12:08:49;;;;;;;;;;;;;;;;;;5070537;28;19933;-64
2021/06/12 12:11:15;;;;;;;;;;;;;;;;;;5068048;28;20228;-64
2021/06/12 12:13:41;;;;;;;;;;;;;;;;;;5070075;28;20438;-64
2021/06/12 12:16:08;;;;;;;;;;;;;;;;;;5070233;28;19924;-65
2021/06/12 12:18:34;;;;;;;;;;;;;;;;;;5068799;28;19924;-65
2021/06/12 12:21:01;;;;;;;;;;;;;;;;;;5071004;28;19981;-65
2021/06/12 12:23:27;;;;;;;;;;;;;;;;;;5068712;28;19929;-65
2021/06/12 12:25:55;;;;;;;;;;;;;;;;;;5066140;28;19924;-64
2021/06/12 12:28:22;;;;;;;;;;;;;;;;;;5068950;28;20011;-63
2021/06/12 12:30:49;;;;;;;;;;;;;;;;;;5071420;28;19932;-64
2021/06/12 12:33:15;;;;;;;;;;;;;;;;;;5071405;28;20289;-64
2021/06/12 12:35:42;;;;;;;;;;;;;;;;;;5070502;28;19932;-64
2021/06/12 12:38:08;;;;;;;;;;;;;;;;;;5068620;28;20011;-63
2021/06/12 12:40:35;;;;;;;;;;;;;;;;;;5068815;28;19931;-64
2021/06/12 12:43:01;;;;;;;;;;;;;;;;;;5070554;28;20253;-64
2021/06/12 12:45:28;;;;;;;;;;;;;;;;;;5067487;28;20077;-64
2021/06/12 12:47:54;;;;;;;;;;;;;;;;;;5068496;28;20015;-64
2021/06/12 12:50:21;;;;;;;;;;;;;;;;;;5067927;28;19978;-64
2021/06/12 12:52:47;;;;;;;;;;;;;;;;;;5068293;28;20047;-65
2021/06/12 12:55:14;;;;;;;;;;;;;;;;;;5068283;28;19932;-65
2021/06/12 12:57:40;;;;;;;;;;;;;;;;;;5069131;28;19924;-65
2021/06/12 13:00:07;;;;;;;;;;;;;;;;;;5069916;28;19966;-65
2021/06/12 13:02:33;;;;;;;;;;;;;;;;;;5068740;28;19924;-65
2021/06/12 13:05:00;;;;;;;;;;;;;;;;;;5068094;28;20129;-65
2021/06/12 13:07:27;;;;;;;;;;;;;;;;;;5068174;28;19973;-65
2021/06/12 13:09:54;;;;;;;;;;;;;;;;;;5069191;28;20334;-65
2021/06/12 13:12:20;;;;;;;;;;;;;;;;;;5072290;28;20023;-64
2021/06/12 13:14:47;;;;;;;;;;;;;;;;;;5077154;28;20417;-64
2021/06/12 13:17:13;;;;;;;;;;;;;;;;;;5074146;28;19924;-64
2021/06/12 13:19:40;;;;;;;;;;;;;;;;;;5074186;28;20349;-64
2021/06/12 13:22:06;;;;;;;;;;;;;;;;;;5074576;28;20015;-64
2021/06/12 13:24:33;;;;;;;;;;;;;;;;;;5073422;28;20300;-64
2021/06/12 13:26:59;;;;;;;;;;;;;;;;;;5073476;28;19929;-64
2021/06/12 13:29:28;;;;;;;;;;;;;;;;;;5074440;28;20306;-64
2021/06/12 13:31:54;;;;;;;;;;;;;;;;;;5075159;28;19930;-64
2021/06/12 13:34:20;;;;;;;;;;;;;;;;;;5074545;28;19932;-65
2021/06/12 13:36:47;;;;;;;;;;;;;;;;;;5073366;28;19928;-64
2021/06/12 13:39:13;;;;;;;;;;;;;;;;;;5076206;28;19931;-63
2021/06/12 13:41:40;;;;;;;;;;;;;;;;;;5073282;28;19928;-63
2021/06/12 13:44:06;;;;;;;;;;;;;;;;;;5072277;28;20058;-64
2021/06/12 13:46:33;;;;;;;;;;;;;;;;;;5072480;28;19978;-64
2021/06/12 13:48:59;;;;;;;;;;;;;;;;;;5072746;28;19924;-64
2021/06/12 13:51:26;;;;;;;;;;;;;;;;;;5072893;28;20015;-64
2021/06/12 13:53:55;;;;;;;;;;;;;;;;;;5072307;28;19925;-64
2021/06/12 13:56:22;;;;;;;;;;;;;;;;;;5072349;28;20439;-64
2021/06/12 13:58:48;;;;;;;;;;;;;;;;;;5072684;28;19925;-64
2021/06/12 14:01:15;;;;;;;;;;;;;;;;;;5072416;28;19932;-64
2021/06/12 14:03:41;;;;;;;;;;;;;;;;;;5072961;28;19931;-64
2021/06/12 14:06:08;;;;;;;;;;;;;;;;;;5072555;28;19924;-64
2021/06/12 14:08:34;;;;;;;;;;;;;;;;;;5072086;28;19932;-63
2021/06/12 14:11:01;;;;;;;;;;;;;;;;;;5072195;28;19930;-64
2021/06/12 14:13:27;;;;;;;;;;;;;;;;;;5077602;28;19939;-64
2021/06/12 14:15:54;;;;;;;;;;;;;;;;;;5079573;28;19930;-64
2021/06/12 14:18:20;;;;;;;;;;;;;;;;;;5080628;28;20354;-64
2021/06/12 14:20:46;;;;;;;;;;;;;;;;;;5075139;28;19930;-64
2021/06/12 14:23:14;;;;;;;;;;;;;;;;;;5072117;28;19924;-64
2021/06/12 14:25:42;;;;;;;;;;;;;;;;;;5071871;28;19924;-64
2021/06/12 14:28:12;;;;;;;;;;;;;;;;;;5073037;28;19931;-67
2021/06/12 14:30:39;;;;;;;;;;;;;;;;;;5067955;28;19931;-66
2021/06/12 14:33:05;;;;;;;;;;;;;;;;;;5070361;28;20285;-65
2021/06/12 14:35:32;;;;;;;;;;;;;;;;;;5066886;28;19946;-67
2021/06/12 14:37:58;;;;;;;;;;;;;;;;;;5071776;28;19970;-66
2021/06/12 14:40:25;;;;;;;;;;;;;;;;;;5067566;28;19924;-66
2021/06/12 14:42:53;;;;;;;;;;;;;;;;;;5065048;28;19931;-66
2021/06/12 14:45:21;;;;;;;;;;;;;;;;;;5067746;28;19967;-65
2021/06/12 14:47:47;;;;;;;;;;;;;;;;;;5068367;28;20352;-63
2021/06/12 14:50:14;;;;;;;;;;;;;;;;;;5067176;28;19932;-64
2021/06/12 14:52:40;;;;;;;;;;;;;;;;;;5067087;28;19925;-64
2021/06/12 14:55:07;;;;;;;;;;;;;;;;;;5068792;28;19924;-65
2021/06/12 14:57:33;;;;;;;;;;;;;;;;;;5065656;28;19931;-63
2021/06/12 15:00:00;;;;;;;;;;;;;;;;;;5065239;28;19944;-65
2021/06/12 15:02:26;;;;;;;;;;;;;;;;;;5064494;28;20393;-65
2021/06/12 15:04:53;;;;;;;;;;;;;;;;;;5064584;28;19932;-64
2021/06/12 15:07:19;;;;;;;;;;;;;;;;;;5066024;28;19993;-64
2021/06/12 15:09:46;;;;;;;;;;;;;;;;;;5065827;28;20422;-65
2021/06/12 15:12:12;;;;;;;;;;;;;;;;;;5068488;28;19924;-64
2021/06/12 15:14:39;;;;;;;;;;;;;;;;;;5063403;28;20289;-67
2021/06/12 15:17:05;;;;;;;;;;;;;;;;;;5067054;28;19928;-67
2021/06/12 15:19:32;;;;;;;;;;;;;;;;;;5067322;28;20016;-64
2021/06/12 15:22:01;;;;;;;;;;;;;;;;;;5065866;28;19932;-66
2021/06/12 15:24:29;;;;;;;;;;;;;;;;;;5066352;28;20497;-66
2021/06/12 15:26:56;;;;;;;;;;;;;;;;;;5065228;28;20304;-66
2021/06/12 15:29:22;;;;;;;;;;;;;;;;;;5064952;28;19924;-65
2021/06/12 15:31:49;;;;;;;;;;;;;;;;;;5065295;28;20302;-65
2021/06/12 15:34:15;;;;;;;;;;;;;;;;;;5067955;28;19977;-66
2021/06/12 15:36:42;;;;;;;;;;;;;;;;;;5065389;28;19929;-67
2021/06/12 15:39:10;;;;;;;;;;;;;;;;;;5069221;28;19932;-67
2021/06/12 15:41:36;;;;;;;;;;;;;;;;;;5069847;28;19929;-66
2021/06/12 15:44:03;;;;;;;;;;;;;;;;;;5068208;28;20353;-65
2021/06/12 15:46:29;;;;;;;;;;;;;;;;;;5066219;28;19969;-67
2021/06/12 15:48:56;;;;;;;;;;;;;;;;;;5070490;28;20368;-66
2021/06/12 15:51:22;;;;;;;;;;;;;;;;;;5069869;28;20610;-65
2021/06/12 15:53:49;;;;;;;;;;;;;;;;;;5067311;28;19929;-65
2021/06/12 15:56:15;;;;;;;;;;;;;;;;;;5064303;28;19978;-63
2021/06/12 15:58:42;;;;;;;;;;;;;;;;;;5070048;28;19932;-64
2021/06/12 16:01:08;;;;;;;;;;;;;;;;;;5065508;28;20457;-64
2021/06/12 16:03:35;;;;;;;;;;;;;;;;;;5067376;28;19947;-63
2021/06/12 16:06:01;;;;;;;;;;;;;;;;;;5064646;28;19925;-64
2021/06/12 16:08:28;;;;;;;;;;;;;;;;;;5065511;28;20003;-63
2021/06/12 16:10:54;;;;;;;;;;;;;;;;;;5068771;28;20035;-65
2021/06/12 16:13:21;;;;;;;;;;;;;;;;;;5061719;28;19925;-66
2021/06/12 16:15:47;;;;;;;;;;;;;;;;;;5063104;28;20410;-66
2021/06/12 16:18:14;;;;;;;;;;;;;;;;;;5067957;28;19924;-66
2021/06/12 16:20:40;;;;;;;;;;;;;;;;;;5062192;28;20391;-66
2021/06/12 16:23:07;;;;;;;;;;;;;;;;;;5065772;28;20273;-66
2021/06/12 16:25:33;;;;;;;;;;;;;;;;;;5071895;28;19924;-65
2021/06/12 16:28:00;;;;;;;;;;;;;;;;;;5072185;28;20296;-65
2021/06/12 16:30:26;;;;;;;;;;;;;;;;;;5074798;28;20342;-65
2021/06/12 16:32:55;;;;;;;;;;;;;;;;;;5070390;28;20011;-66
2021/06/12 16:35:21;;;;;;;;;;;;;;;;;;5065685;28;20339;-66
2021/06/12 16:37:48;;;;;;;;;;;;;;;;;;5069437;28;20283;-66
2021/06/12 16:40:14;;;;;;;;;;;;;;;;;;5070236;28;20030;-65